Time;durP1;ratioP1;P1;durP2;ratioP2;P2;SDS_P1;SDS_P2;PMS_P1;PMS_P2;Temp;Humidity;BMP_temperature;BMP_pressure;BME280_temperature;BME280_humidity;BME280_pressure;Samples;Min_cycle;Max_cycle;Signal;HPM_P1;HPM_P2
2023/05/06 00:00:21;;;;;;;;;;;;;;;11.68;72.52;100854.44;5004383;28;20016;-89
2023/05/06 00:02:47;;;;;;;;;;;;;;;11.70;73.29;100857.81;5004623;28;19925;-88
2023/05/06 00:05:19;;;;;;;;;;;;;;;11.61;74.07;100847.03;5019431;28;19921;-86
2023/05/06 00:07:45;;;;;;;;;;;;;;;11.56;74.55;100857.41;5008000;28;19967;-91
2023/05/06 00:10:15;;;;;;;;;;;;;;;11.59;74.49;100851.72;5018012;28;19921;-88
2023/05/06 00:12:41;;;;;;;;;;;;;;;11.62;74.61;100846.00;5005659;28;20416;-90
2023/05/06 00:15:08;;;;;;;;;;;;;;;11.54;75.07;100853.22;5007476;28;20021;-86
2023/05/06 00:17:34;;;;;;;;;;;;;;;11.54;75.16;100846.00;5019207;28;19949;-87
2023/05/06 00:19:59;;;;;;;;;;;;;;;11.56;74.86;100849.34;5003532;28;19926;-90
2023/05/06 00:22:34;;;;;;;;;;;;;;;11.36;75.87;100838.00;5025696;28;20434;-89
2023/05/06 00:25:02;;;;;;;;;;;;;;;11.41;75.71;100838.38;5018726;28;20057;-86
2023/05/06 00:27:32;;;;;;;;;;;;;;;11.51;75.05;100843.59;5006046;28;20008;-87
2023/05/06 00:29:57;;;;;;;;;;;;;;;11.53;74.93;100840.78;5006432;28;19972;-88
2023/05/06 00:32:23;;;;;;;;;;;;;;;11.55;74.79;100841.44;5037965;28;19929;-86
2023/05/06 00:34:49;;;;;;;;;;;;;;;11.46;74.83;100837.88;5029202;28;20022;-88
2023/05/06 00:37:15;;;;;;;;;;;;;;;11.44;74.79;100841.75;5008546;28;19988;-88
2023/05/06 00:39:41;;;;;;;;;;;;;;;11.45;74.61;100838.91;5024007;28;19925;-88
2023/05/06 00:42:08;;;;;;;;;;;;;;;11.50;74.12;100836.56;5021819;28;19921;-89
2023/05/06 00:44:34;;;;;;;;;;;;;;;11.45;73.91;100821.88;4996732;28;19929;-87
2023/05/06 00:47:01;;;;;;;;;;;;;;;11.49;73.07;100826.78;5019761;28;19921;-87
2023/05/06 00:49:26;;;;;;;;;;;;;;;11.53;72.54;100825.44;4990825;28;19929;-87
2023/05/06 00:51:55;;;;;;;;;;;;;;;11.50;72.15;100824.94;5008204;28;19984;-88
2023/05/06 00:54:22;;;;;;;;;;;;;;;11.51;71.51;100824.75;4991052;28;19975;-87
2023/05/06 00:56:47;;;;;;;;;;;;;;;11.53;70.41;100825.44;5014862;28;19921;-87
2023/05/06 00:59:12;;;;;;;;;;;;;;;11.52;66.41;100826.47;5009033;28;20398;-90
2023/05/06 01:01:38;;;;;;;;;;;;;;;11.57;65.98;100832.19;5028413;28;19996;-88
2023/05/06 01:04:03;;;;;;;;;;;;;;;11.56;69.67;100824.28;4991910;28;19921;-86
2023/05/06 01:06:31;;;;;;;;;;;;;;;11.56;71.63;100819.72;5029620;28;20003;-87
2023/05/06 01:08:57;;;;;;;;;;;;;;;11.60;71.59;100821.09;5005272;28;19929;-88
2023/05/06 01:11:33;;;;;;;;;;;;;;;11.62;69.08;100812.88;4999781;28;20269;-88
2023/05/06 01:14:00;;;;;;;;;;;;;;;11.67;68.51;100817.75;4987896;28;19929;-88
2023/05/06 01:16:29;;;;;;;;;;;;;;;11.73;69.44;100819.78;5020130;28;20401;-89
2023/05/06 01:18:55;;;;;;;;;;;;;;;11.73;69.65;100812.56;5004230;28;21082;-89
2023/05/06 01:21:20;;;;;;;;;;;;;;;11.76;67.88;100806.84;5018080;28;19921;-89
2023/05/06 01:23:54;;;;;;;;;;;;;;;11.81;66.66;100807.19;4997920;28;20009;-89
2023/05/06 01:26:21;;;;;;;;;;;;;;;11.84;65.83;100800.59;5017757;28;19921;-88
2023/05/06 01:28:47;;;;;;;;;;;;;;;11.87;65.38;100804.81;5018173;28;19929;-88
2023/05/06 01:31:14;;;;;;;;;;;;;;;11.97;63.21;100802.88;5015844;28;19928;-88
2023/05/06 01:33:49;;;;;;;;;;;;;;;11.94;63.02;100795.97;4998285;28;19939;-89
2023/05/06 01:36:28;;;;;;;;;;;;;;;12.06;62.17;100796.47;5017268;28;19921;-89
2023/05/06 01:39:05;;;;;;;;;;;;;;;12.15;61.86;100792.78;5001032;28;19975;-90
2023/05/06 01:41:31;;;;;;;;;;;;;;;12.30;61.31;100784.84;5017769;28;20397;-86
2023/05/06 01:43:56;;;;;;;;;;;;;;;12.35;60.89;100787.88;4995052;28;19995;-88
2023/05/06 01:46:21;;;;;;;;;;;;;;;12.41;60.73;100791.75;5003613;28;19972;-88
2023/05/06 01:48:48;;;;;;;;;;;;;;;12.52;60.20;100783.31;4996785;28;19924;-89
2023/05/06 01:51:16;;;;;;;;;;;;;;;12.59;59.92;100786.16;4987842;28;19921;-88
2023/05/06 01:53:42;;;;;;;;;;;;;;;12.58;59.93;100787.19;5022026;28;20361;-89
2023/05/06 01:56:08;;;;;;;;;;;;;;;12.62;59.72;100783.97;5000792;28;19921;-89
2023/05/06 01:58:35;;;;;;;;;;;;;;;12.59;59.86;100794.25;5023656;28;19933;-89
2023/05/06 02:01:01;;;;;;;;;;;;;;;12.65;59.63;100783.63;5013646;28;19921;-89
2023/05/06 02:03:26;;;;;;;;;;;;;;;12.61;59.96;100781.44;5017595;28;19968;-89
2023/05/06 02:05:53;;;;;;;;;;;;;;;12.68;60.13;100779.75;5018194;28;19973;-91
2023/05/06 02:08:19;;;;;;;;;;;;;;;12.65;60.31;100780.94;4991922;28;19930;-91
2023/05/06 02:10:45;;;;;;;;;;;;;;;12.74;60.18;100780.94;5007495;28;19947;-88
2023/05/06 02:13:14;;;;;;;;;;;;;;;12.70;60.71;100783.13;5023178;28;19979;-90
2023/05/06 02:15:40;;;;;;;;;;;;;;;12.76;60.53;100785.13;4992524;28;21147;-90
2023/05/06 02:18:05;;;;;;;;;;;;;;;12.71;60.74;100786.66;5019750;28;19932;-89
2023/05/06 02:20:31;;;;;;;;;;;;;;;12.78;60.78;100793.91;5003873;28;19925;-89
2023/05/06 02:22:56;;;;;;;;;;;;;;;12.74;61.08;100781.75;4989377;28;19925;-90
2023/05/06 02:25:23;;;;;;;;;;;;;;;12.67;61.33;100786.16;5020549;28;19979;-91
2023/05/06 02:27:48;;;;;;;;;;;;;;;12.66;61.71;100792.56;5018209;28;20032;-90
2023/05/06 02:30:14;;;;;;;;;;;;;;;12.60;62.19;100793.25;5006132;28;19932;-90
2023/05/06 02:32:40;;;;;;;;;;;;;;;12.55;62.51;100788.38;5006371;28;21451;-88
2023/05/06 02:35:06;;;;;;;;;;;;;;;12.49;63.06;100783.66;5010922;28;20023;-89
2023/05/06 02:37:31;;;;;;;;;;;;;;;12.45;63.53;100780.47;5006386;28;19976;-88
2023/05/06 02:39:57;;;;;;;;;;;;;;;12.48;63.73;100783.81;5005868;28;19933;-92
2023/05/06 02:42:22;;;;;;;;;;;;;;;12.46;64.03;100779.44;5010814;28;19983;-89
2023/05/06 02:44:48;;;;;;;;;;;;;;;12.42;64.42;100777.25;5006378;28;19925;-90
2023/05/06 02:47:14;;;;;;;;;;;;;;;12.44;64.49;100781.47;4999918;28;20410;-89
2023/05/06 02:49:42;;;;;;;;;;;;;;;12.35;64.81;100785.19;5004734;28;19944;-90
2023/05/06 02:52:09;;;;;;;;;;;;;;;12.36;64.89;100783.31;5001075;28;20004;-89
2023/05/06 02:54:35;;;;;;;;;;;;;;;12.34;65.25;100786.22;4992531;28;19929;-89
2023/05/06 02:57:02;;;;;;;;;;;;;;;12.35;65.05;100787.88;5018582;28;20326;-90
2023/05/06 02:59:27;;;;;;;;;;;;;;;12.35;65.09;100781.66;5019706;28;19921;-90
2023/05/06 03:01:55;;;;;;;;;;;;;;;12.20;65.74;100789.59;5021996;28;19922;-90
2023/05/06 03:04:21;;;;;;;;;;;;;;;12.28;65.87;100792.25;5008991;28;19943;-89
2023/05/06 03:06:48;;;;;;;;;;;;;;;12.23;65.97;100787.38;5019720;28;20012;-89
2023/05/06 03:09:14;;;;;;;;;;;;;;;12.27;65.92;100785.19;4992002;28;19921;-91
2023/05/06 03:11:39;;;;;;;;;;;;;;;12.22;66.32;100792.91;4992084;28;19929;-90
2023/05/06 03:14:06;;;;;;;;;;;;;;;12.28;66.39;100794.13;5024145;28;19921;-90
2023/05/06 03:16:33;;;;;;;;;;;;;;;12.30;66.06;100778.63;4998894;28;20386;-91
2023/05/06 03:18:59;;;;;;;;;;;;;;;12.24;66.52;100793.59;5021141;28;20374;-91
2023/05/06 03:21:24;;;;;;;;;;;;;;;12.20;66.74;100790.41;5029683;28;19936;-91
2023/05/06 03:23:50;;;;;;;;;;;;;;;12.23;66.72;100791.94;5024410;28;20409;-90
2023/05/06 03:26:17;;;;;;;;;;;;;;;12.26;66.65;100791.59;5012543;28;19995;-88
2023/05/06 03:28:45;;;;;;;;;;;;;;;12.28;66.77;100791.44;4995871;28;19922;-91
2023/05/06 03:31:10;;;;;;;;;;;;;;;12.29;66.88;100793.09;5018839;28;19950;-90
2023/05/06 03:33:37;;;;;;;;;;;;;;;12.33;66.57;100789.91;5010820;28;19925;-89
2023/05/06 03:36:06;;;;;;;;;;;;;;;12.41;66.36;100806.09;5014436;28;19932;-88
2023/05/06 03:38:31;;;;;;;;;;;;;;;12.49;66.27;100813.31;5026781;28;19944;-90
2023/05/06 03:40:57;;;;;;;;;;;;;;;12.60;66.07;100806.75;5026475;28;19929;-92
2023/05/06 03:43:24;;;;;;;;;;;;;;;12.61;66.06;100809.25;5022745;28;20055;-88
2023/05/06 03:45:49;;;;;;;;;;;;;;;12.71;65.78;100819.84;5008973;28;19925;-89
2023/05/06 03:48:15;;;;;;;;;;;;;;;12.76;65.61;100812.13;5003817;28;20050;-91
2023/05/06 03:50:40;;;;;;;;;;;;;;;12.77;65.80;100807.56;4993326;28;19933;-88
2023/05/06 03:53:06;;;;;;;;;;;;;;;12.79;65.79;100821.72;5005122;28;19925;-90
2023/05/06 03:55:31;;;;;;;;;;;;;;;12.78;66.09;100815.50;5005841;28;20018;-90
2023/05/06 03:57:57;;;;;;;;;;;;;;;12.83;66.23;100812.25;4994590;28;19925;-91
2023/05/06 04:00:23;;;;;;;;;;;;;;;12.85;66.18;100816.47;5005119;28;20010;-89
2023/05/06 04:02:49;;;;;;;;;;;;;;;12.94;66.19;100835.34;5005616;28;19930;-91
2023/05/06 04:05:15;;;;;;;;;;;;;;;12.96;66.30;100826.06;5023040;28;19921;-89
2023/05/06 04:07:44;;;;;;;;;;;;;;;12.93;66.53;100831.81;4984475;28;20591;-91
2023/05/06 04:10:10;;;;;;;;;;;;;;;13.00;66.18;100831.97;5015657;28;20352;-88
2023/05/06 04:12:36;;;;;;;;;;;;;;;13.07;66.06;100833.78;4995594;28;20012;-90
2023/05/06 04:15:06;;;;;;;;;;;;;;;13.19;65.65;100838.81;5013170;28;19926;-89
2023/05/06 04:17:31;;;;;;;;;;;;;;;13.29;65.55;100834.91;5014689;28;20055;-89
2023/05/06 04:19:56;;;;;;;;;;;;;;;13.33;65.46;100840.81;5009527;28;19980;-90
2023/05/06 04:22:22;;;;;;;;;;;;;;;13.44;64.93;100831.50;5010343;28;19925;-89
2023/05/06 04:24:47;;;;;;;;;;;;;;;13.47;65.51;100831.16;5006702;28;20313;-89
2023/05/06 04:27:14;;;;;;;;;;;;;;;13.53;65.29;100835.84;5031236;28;19917;-89
2023/05/06 04:29:42;;;;;;;;;;;;;;;13.58;65.01;100838.88;5009571;28;20367;-89
2023/05/06 04:32:10;;;;;;;;;;;;;;;13.56;65.41;100832.78;5006912;28;19960;-90
2023/05/06 04:34:36;;;;;;;;;;;;;;;13.66;65.31;100836.13;5034193;28;19992;-89
2023/05/06 04:37:08;;;;;;;;;;;;;;;13.77;65.15;100837.59;5039773;28;19937;-89
2023/05/06 04:39:45;;;;;;;;;;;;;;;13.93;64.72;100842.91;4996628;28;19917;-89
2023/05/06 04:42:11;;;;;;;;;;;;;;;14.38;63.62;100850.38;5039915;28;19952;-90
2023/05/06 04:44:36;;;;;;;;;;;;;;;14.78;61.83;100860.84;5037567;28;19983;-89
2023/05/06 04:47:03;;;;;;;;;;;;;;;15.11;61.06;100862.41;5031242;28;20690;-88
2023/05/06 04:49:28;;;;;;;;;;;;;;;15.37;60.25;100873.59;5019720;28;19948;-89
2023/05/06 04:51:54;;;;;;;;;;;;;;;15.66;58.82;100871.88;5036775;28;19924;-89
2023/05/06 04:54:24;;;;;;;;;;;;;;;15.88;58.51;100874.69;5027781;28;19922;-90
2023/05/06 04:56:52;;;;;;;;;;;;;;;16.14;57.62;100874.16;5010712;28;19921;-91
2023/05/06 04:59:20;;;;;;;;;;;;;;;16.33;57.40;100875.38;5049127;28;19941;-90
2023/05/06 05:01:45;;;;;;;;;;;;;;;16.64;55.97;100878.59;5029981;28;19929;-90
2023/05/06 05:04:12;;;;;;;;;;;;;;;16.95;55.46;100882.88;5024817;28;20014;-90
2023/05/06 05:06:38;;;;;;;;;;;;;;;17.09;54.54;100862.03;5017029;28;19929;-90
2023/05/06 05:09:04;;;;;;;;;;;;;;;17.37;53.96;100869.31;5039045;28;20327;-90
2023/05/06 05:11:30;;;;;;;;;;;;;;;17.41;53.79;100866.00;5024907;28;19922;-90
2023/05/06 05:13:56;;;;;;;;;;;;;;;17.73;52.82;100867.22;5024813;28;19944;-84
2023/05/06 05:16:22;;;;;;;;;;;;;;;18.01;52.05;100869.03;5042218;28;19993;-89
2023/05/06 05:18:48;;;;;;;;;;;;;;;18.15;52.80;100872.63;5033195;28;19917;-91
2023/05/06 05:21:23;;;;;;;;;;;;;;;18.44;52.77;100876.00;5043335;28;19925;-89
2023/05/06 05:23:49;;;;;;;;;;;;;;;18.72;52.81;100876.66;5030693;28;19944;-89
2023/05/06 05:26:15;;;;;;;;;;;;;;;18.83;50.05;100868.94;5010358;28;19967;-88
2023/05/06 05:28:43;;;;;;;;;;;;;;;19.02;49.60;100875.44;5016200;28;19925;-89
2023/05/06 05:31:10;;;;;;;;;;;;;;;19.05;49.32;100872.25;5030492;28;19923;-88
2023/05/06 05:33:35;;;;;;;;;;;;;;;19.18;50.14;100878.53;5014675;28;19992;-91
2023/05/06 05:36:01;;;;;;;;;;;;;;;19.44;48.76;100881.41;5011116;28;19928;-81
2023/05/06 05:38:28;;;;;;;;;;;;;;;19.71;48.31;100882.19;5045759;28;19937;-87
2023/05/06 05:40:55;;;;;;;;;;;;;;;20.00;48.31;100889.81;5032772;28;20285;-88
2023/05/06 05:43:21;;;;;;;;;;;;;;;20.19;49.59;100884.47;5027069;28;19924;-90
2023/05/06 05:45:48;;;;;;;;;;;;;;;20.36;46.97;100891.09;5027137;28;19933;-91
2023/05/06 05:48:19;;;;;;;;;;;;;;;20.45;46.03;100889.75;5024177;28;20004;-91
2023/05/06 05:50:47;;;;;;;;;;;;;;;20.57;45.54;100897.28;5036301;28;19973;-93
2023/05/06 05:53:14;;;;;;;;;;;;;;;20.81;44.76;100888.28;5015752;28;19929;-95
2023/05/06 05:55:42;;;;;;;;;;;;;;;21.00;44.53;100885.56;5006964;28;19928;-91
2023/05/06 05:58:08;;;;;;;;;;;;;;;21.06;44.29;100895.63;5006132;28;19926;-89
2023/05/06 06:00:35;;;;;;;;;;;;;;;21.15;44.00;100894.25;5003525;28;20012;-90
2023/05/06 06:03:00;;;;;;;;;;;;;;;21.36;43.79;100895.75;5028088;28;19929;-90
2023/05/06 06:05:28;;;;;;;;;;;;;;;21.63;43.51;100887.25;5017836;28;19929;-89
2023/05/06 06:08:02;;;;;;;;;;;;;;;22.00;43.00;100893.53;5023409;28;20035;-87
2023/05/06 06:10:30;;;;;;;;;;;;;;;22.11;42.21;100898.22;5027207;28;19999;-89
2023/05/06 06:12:55;;;;;;;;;;;;;;;22.12;41.42;100899.91;5029883;28;19921;-87
2023/05/06 06:15:21;;;;;;;;;;;;;;;22.06;41.55;100898.09;5022368;28;19987;-86
2023/05/06 06:17:46;;;;;;;;;;;;;;;21.70;42.73;100894.34;4989348;28;19925;-87
2023/05/06 06:20:14;;;;;;;;;;;;;;;21.91;42.45;100895.75;5026511;28;19909;-86
2023/05/06 06:22:43;;;;;;;;;;;;;;;22.02;42.17;100894.13;5033174;28;19922;-86
2023/05/06 06:25:08;;;;;;;;;;;;;;;22.44;41.80;100893.38;5034505;28;19959;-85
2023/05/06 06:27:35;;;;;;;;;;;;;;;22.73;41.11;100895.22;5031587;28;19921;-88
2023/05/06 06:30:02;;;;;;;;;;;;;;;23.04;40.33;100892.41;5001742;28;20012;-88
2023/05/06 06:32:27;;;;;;;;;;;;;;;23.17;39.70;100894.91;4998557;28;19970;-87
2023/05/06 06:34:52;;;;;;;;;;;;;;;23.52;39.29;100891.31;5005246;28;19932;-88
2023/05/06 06:37:18;;;;;;;;;;;;;;;23.75;38.44;100888.53;4997274;28;20287;-88
2023/05/06 06:39:43;;;;;;;;;;;;;;;24.05;38.17;100887.50;5011173;28;20028;-86
2023/05/06 06:42:08;;;;;;;;;;;;;;;23.99;38.22;100897.53;5013620;28;20362;-84
2023/05/06 06:44:34;;;;;;;;;;;;;;;24.27;37.51;100892.28;5013667;28;19940;-84
2023/05/06 06:47:00;;;;;;;;;;;;;;;24.46;37.13;100892.91;5030331;28;19922;-86
2023/05/06 06:49:25;;;;;;;;;;;;;;;24.52;37.44;100892.78;4994007;28;19922;-88
2023/05/06 06:51:56;;;;;;;;;;;;;;;24.69;36.90;100897.47;5010982;28;19921;-88
2023/05/06 06:54:21;;;;;;;;;;;;;;;24.97;37.10;100896.56;5028700;28;19921;-86
2023/05/06 06:56:48;;;;;;;;;;;;;;;25.21;36.33;100897.22;5027098;28;20066;-85
2023/05/06 06:59:15;;;;;;;;;;;;;;;25.25;35.85;100898.38;5017453;28;20365;-87
2023/05/06 07:01:40;;;;;;;;;;;;;;;25.32;35.77;100888.03;5007588;28;20012;-85
2023/05/06 07:04:09;;;;;;;;;;;;;;;25.13;35.95;100892.13;5027433;28;20024;-89
2023/05/06 07:06:35;;;;;;;;;;;;;;;25.18;35.96;100892.22;4992921;28;19925;-86
2023/05/06 07:09:01;;;;;;;;;;;;;;;25.55;35.95;100891.66;5004486;28;19987;-91
2023/05/06 07:11:26;;;;;;;;;;;;;;;25.63;34.23;100893.94;5010530;28;19934;-88
2023/05/06 07:13:54;;;;;;;;;;;;;;;25.65;34.67;100897.28;5006667;28;19932;-86
2023/05/06 07:16:22;;;;;;;;;;;;;;;25.61;34.66;100902.44;5018568;28;20028;-88
2023/05/06 07:18:48;;;;;;;;;;;;;;;25.71;34.39;100904.53;5009145;28;19921;-86
2023/05/06 07:21:14;;;;;;;;;;;;;;;25.75;34.88;100902.91;4993867;28;20448;-84
2023/05/06 07:23:39;;;;;;;;;;;;;;;25.99;33.96;100899.91;5003966;28;19925;-84
2023/05/06 07:26:05;;;;;;;;;;;;;;;26.07;34.35;100902.22;5004204;28;19922;-83
2023/05/06 07:28:30;;;;;;;;;;;;;;;26.30;33.42;100901.91;5004274;28;19986;-85
2023/05/06 07:30:57;;;;;;;;;;;;;;;26.25;33.18;100904.63;5009149;28;20336;-83
2023/05/06 07:33:22;;;;;;;;;;;;;;;26.57;33.49;100909.34;4998728;28;19980;-83
2023/05/06 07:35:47;;;;;;;;;;;;;;;26.35;32.95;100909.41;5020104;28;19921;-85
2023/05/06 07:38:13;;;;;;;;;;;;;;;26.21;33.47;100911.72;5017442;28;19987;-86
2023/05/06 07:40:38;;;;;;;;;;;;;;;26.26;33.06;100911.78;5018149;28;19917;-85
2023/05/06 07:43:05;;;;;;;;;;;;;;;26.11;33.19;100901.44;5017656;28;19928;-86
2023/05/06 07:45:30;;;;;;;;;;;;;;;26.01;32.82;100909.59;5016356;28;19928;-88
2023/05/06 07:47:56;;;;;;;;;;;;;;;25.57;33.77;100925.25;5008753;28;19985;-90
2023/05/06 07:50:23;;;;;;;;;;;;;;;25.77;34.08;100919.16;5004262;28;20231;-91
2023/05/06 07:52:48;;;;;;;;;;;;;;;26.43;33.26;100919.94;5028737;28;19921;-86
2023/05/06 07:55:14;;;;;;;;;;;;;;;26.67;31.89;100928.78;4993268;28;19921;-85
2023/05/06 07:57:40;;;;;;;;;;;;;;;27.06;32.06;100923.00;5010272;28;20310;-90
2023/05/06 08:00:06;;;;;;;;;;;;;;;27.16;32.14;100936.06;5020670;28;19922;-83
2023/05/06 08:02:32;;;;;;;;;;;;;;;27.61;31.81;100922.84;5026691;28;19925;-86
2023/05/06 08:04:57;;;;;;;;;;;;;;;27.81;31.40;100933.97;5004251;28;20000;-87
2023/05/06 08:07:22;;;;;;;;;;;;;;;27.95;30.63;100943.44;4999526;28;20054;-91
2023/05/06 08:09:48;;;;;;;;;;;;;;;27.79;31.44;100941.69;5018867;28;19925;-88
2023/05/06 08:12:14;;;;;;;;;;;;;;;27.84;32.01;100938.16;4984414;28;19970;-86
2023/05/06 08:14:40;;;;;;;;;;;;;;;28.44;30.50;100942.22;5007699;28;20055;-85
2023/05/06 08:17:05;;;;;;;;;;;;;;;28.59;30.39;100938.69;5013042;28;20290;-87
2023/05/06 08:19:31;;;;;;;;;;;;;;;28.12;31.34;100947.94;5009636;28;20294;-87
2023/05/06 08:21:56;;;;;;;;;;;;;;;28.42;30.74;100944.41;5008985;28;19932;-87
2023/05/06 08:24:21;;;;;;;;;;;;;;;28.55;30.97;100937.56;4994658;28;19972;-85
2023/05/06 08:26:48;;;;;;;;;;;;;;;28.21;31.53;100949.06;5005286;28;19979;-86
2023/05/06 08:29:13;;;;;;;;;;;;;;;28.41;30.93;100938.06;5002751;28;19929;-83
2023/05/06 08:31:40;;;;;;;;;;;;;;;28.93;30.24;100941.72;5012904;28;19936;-87
2023/05/06 08:34:06;;;;;;;;;;;;;;;29.19;30.67;100944.50;5008125;28;19928;-87
2023/05/06 08:36:32;;;;;;;;;;;;;;;29.23;29.80;100938.13;5002248;28;19928;-86
2023/05/06 08:39:00;;;;;;;;;;;;;;;29.80;29.22;100940.78;5024909;28;19921;-94
2023/05/06 08:41:28;;;;;;;;;;;;;;;30.33;28.52;100965.25;5006032;28;19944;-89
2023/05/06 08:43:54;;;;;;;;;;;;;;;29.92;28.01;100959.84;5027311;28;19923;-88
2023/05/06 08:46:20;;;;;;;;;;;;;;;30.61;27.44;100955.38;5011559;28;19921;-89
2023/05/06 08:48:45;;;;;;;;;;;;;;;30.76;27.65;100949.69;5005172;28;19989;-87
2023/05/06 08:51:12;;;;;;;;;;;;;;;31.82;26.10;100954.53;5030991;28;19921;-87
2023/05/06 08:53:37;;;;;;;;;;;;;;;31.85;24.71;100951.16;5023901;28;19921;-88
2023/05/06 08:56:05;;;;;;;;;;;;;;;31.62;24.92;100969.50;5021405;28;19917;-85
2023/05/06 08:58:32;;;;;;;;;;;;;;;31.64;26.45;100949.75;5000477;28;19946;-87
2023/05/06 09:01:02;;;;;;;;;;;;;;;32.14;25.17;100959.41;5000491;28;19925;-92
2023/05/06 09:03:29;;;;;;;;;;;;;;;32.52;24.31;100964.19;5002214;28;19932;-93
2023/05/06 09:05:55;;;;;;;;;;;;;;;31.43;25.90;100963.03;5000058;28;19921;-94
2023/05/06 09:08:24;;;;;;;;;;;;;;;30.95;26.67;100957.34;5005906;28;19918;-91
2023/05/06 09:10:53;;;;;;;;;;;;;;;31.42;26.29;100958.59;5009152;28;19987;-90
2023/05/06 09:13:24;;;;;;;;;;;;;;;31.52;25.60;100964.06;5024116;28;19928;-92
2023/05/06 09:15:54;;;;;;;;;;;;;;;31.38;25.76;100958.34;5024430;28;19979;-91
2023/05/06 09:18:28;;;;;;;;;;;;;;;30.12;27.22;100953.41;5025210;28;19929;-94
2023/05/06 09:20:53;;;;;;;;;;;;;;;30.69;27.10;100957.50;4995233;28;20355;-93
2023/05/06 09:23:20;;;;;;;;;;;;;;;30.67;27.09;100948.63;5021977;28;19972;-93
2023/05/06 09:25:50;;;;;;;;;;;;;;;29.86;27.58;100961.84;5013036;28;20059;-93
2023/05/06 09:28:24;;;;;;;;;;;;;;;30.25;26.92;100955.53;5018665;28;19929;-96
2023/05/06 09:30:50;;;;;;;;;;;;;;;29.49;28.52;100959.41;5020902;28;20350;-90
2023/05/06 09:33:16;;;;;;;;;;;;;;;28.65;29.30;100943.09;5010323;28;19944;-92
2023/05/06 09:35:42;;;;;;;;;;;;;;;28.16;30.12;100946.28;5004579;28;19914;-89
2023/05/06 09:38:09;;;;;;;;;;;;;;;28.25;29.81;100944.66;4991834;28;19948;-91
2023/05/06 09:40:35;;;;;;;;;;;;;;;29.87;27.72;100927.44;5005024;28;19925;-91
2023/05/06 09:43:00;;;;;;;;;;;;;;;31.00;26.65;100935.06;5028172;28;19917;-89
2023/05/06 09:45:28;;;;;;;;;;;;;;;31.42;25.99;100919.69;5007526;28;20058;-89
2023/05/06 09:47:55;;;;;;;;;;;;;;;32.45;24.55;100936.75;5030104;28;20338;-89
2023/05/06 09:50:23;;;;;;;;;;;;;;;34.63;22.72;100937.59;4989226;28;19936;-87
2023/05/06 09:52:51;;;;;;;;;;;;;;;35.77;20.92;100918.66;5029879;28;19917;-87
2023/05/06 09:55:17;;;;;;;;;;;;;;;37.10;19.39;100909.66;5017103;28;19983;-89
2023/05/06 09:57:44;;;;;;;;;;;;;;;36.63;19.14;100923.56;5023583;28;20006;-89
2023/05/06 10:00:11;;;;;;;;;;;;;;;37.02;18.72;100924.50;4998247;28;19917;-88
2023/05/06 10:02:38;;;;;;;;;;;;;;;35.96;19.09;100926.75;5030074;28;19925;-89
2023/05/06 10:05:07;;;;;;;;;;;;;;;35.44;19.45;100921.81;4996782;28;20119;-88
2023/05/06 10:07:33;;;;;;;;;;;;;;;35.68;19.69;100905.50;5027324;28;20408;-89
2023/05/06 10:09:59;;;;;;;;;;;;;;;34.96;19.67;100916.94;5017007;28;19937;-89
2023/05/06 10:12:24;;;;;;;;;;;;;;;34.91;19.69;100923.50;5010664;28;19925;-90
2023/05/06 10:14:53;;;;;;;;;;;;;;;34.94;19.58;100902.50;5010487;28;19933;-89
2023/05/06 10:17:18;;;;;;;;;;;;;;;34.79;20.05;100903.69;5028914;28;19925;-89
2023/05/06 10:19:45;;;;;;;;;;;;;;;35.22;19.99;100903.97;4983390;28;19921;-90
2023/05/06 10:22:29;;;;;;;;;;;;;;;35.20;19.78;100914.66;5006534;28;19988;-90
2023/05/06 10:25:02;;;;;;;;;;;;;;;35.84;19.77;100914.22;5004748;28;20059;-90
2023/05/06 10:27:30;;;;;;;;;;;;;;;34.13;20.43;100906.09;5023689;28;19917;-90
2023/05/06 10:29:57;;;;;;;;;;;;;;;33.71;21.61;100917.28;5006560;28;20369;-90
2023/05/06 10:32:22;;;;;;;;;;;;;;;33.11;21.66;100909.00;5009387;28;19917;-90
2023/05/06 10:34:52;;;;;;;;;;;;;;;33.25;21.90;100908.97;4986112;28;19928;-90
2023/05/06 10:37:17;;;;;;;;;;;;;;;31.13;24.50;100921.34;4993579;28;19926;-89
2023/05/06 10:39:43;;;;;;;;;;;;;;;29.65;26.36;100925.84;4981870;28;20452;-90
2023/05/06 10:42:10;;;;;;;;;;;;;;;28.27;27.60;100925.88;5027656;28;19975;-91
2023/05/06 10:44:57;;;;;;;;;;;;;;;27.94;28.16;100905.88;5017505;28;20009;-90
2023/05/06 10:47:23;;;;;;;;;;;;;;;26.68;30.65;100908.38;4998324;28;19972;-90
2023/05/06 10:50:11;;;;;;;;;;;;;;;26.20;31.62;100915.59;5019416;28;19941;-90
2023/05/06 10:52:43;;;;;;;;;;;;;;;25.65;33.32;100922.88;5009767;28;19917;-91
2023/05/06 10:55:27;;;;;;;;;;;;;;;25.36;34.58;100921.38;5029086;28;20008;-90
2023/05/06 10:57:57;;;;;;;;;;;;;;;25.40;35.34;100931.63;5034272;28;20369;-89
2023/05/06 11:00:23;;;;;;;;;;;;;;;25.28;35.64;100928.13;5018552;28;19964;-90
2023/05/06 11:03:05;;;;;;;;;;;;;;;25.27;35.91;100923.72;5014062;28;19925;-90
2023/05/06 11:05:31;;;;;;;;;;;;;;;24.70;37.35;100923.84;5031511;28;19960;-89
2023/05/06 11:08:08;;;;;;;;;;;;;;;24.69;38.09;100924.97;4996731;28;20282;-90
2023/05/06 11:10:34;;;;;;;;;;;;;;;24.41;39.09;100927.44;5010367;28;19975;-90
2023/05/06 11:13:18;;;;;;;;;;;;;;;24.91;37.94;100923.16;5015810;28;19920;-87
2023/05/06 11:15:45;;;;;;;;;;;;;;;24.53;38.26;100932.91;5006780;28;19925;-90
2023/05/06 11:18:26;;;;;;;;;;;;;;;24.37;38.46;100936.44;5013932;28;20789;-90
2023/05/06 11:21:03;;;;;;;;;;;;;;;23.78;39.32;100939.38;5022519;28;19917;-90
2023/05/06 11:23:41;;;;;;;;;;;;;;;24.43;37.90;100932.72;5011294;28;20015;-87
2023/05/06 11:26:08;;;;;;;;;;;;;;;23.95;39.04;100931.22;5006937;28;19957;-90
2023/05/06 11:28:33;;;;;;;;;;;;;;;23.68;39.04;100944.63;4993897;28;19932;-89
2023/05/06 11:30:59;;;;;;;;;;;;;;;24.29;38.10;100945.09;5002332;28;19925;-89
2023/05/06 11:33:34;;;;;;;;;;;;;;;23.44;39.35;100950.13;5026621;28;19956;-90
2023/05/06 11:36:02;;;;;;;;;;;;;;;22.18;41.75;100946.59;5018270;28;19913;-90
2023/05/06 11:38:42;;;;;;;;;;;;;;;21.74;43.18;100954.91;5009836;28;20020;-88
2023/05/06 11:41:08;;;;;;;;;;;;;;;21.62;43.54;100946.63;5014976;28;19971;-92
2023/05/06 11:43:35;;;;;;;;;;;;;;;21.58;43.73;100948.13;5007933;28;19917;-90
2023/05/06 11:46:01;;;;;;;;;;;;;;;21.71;44.07;100952.63;4996729;28;19925;-88
2023/05/06 11:48:27;;;;;;;;;;;;;;;21.68;43.58;100953.94;5004307;28;20029;-89
2023/05/06 11:50:53;;;;;;;;;;;;;;;21.58;43.60;100948.13;5027513;28;19967;-90
2023/05/06 11:53:22;;;;;;;;;;;;;;;21.38;44.19;100947.47;5020101;28;19987;-90
2023/05/06 11:55:48;;;;;;;;;;;;;;;21.67;43.93;100945.94;5003477;28;19998;-90
2023/05/06 11:58:15;;;;;;;;;;;;;;;22.17;42.69;100944.91;4994700;28;19967;-89
2023/05/06 12:00:50;;;;;;;;;;;;;;;22.45;41.59;100917.81;5010322;28;20327;-89
2023/05/06 12:03:17;;;;;;;;;;;;;;;22.42;41.94;100936.59;5028004;28;19928;-90
2023/05/06 12:05:42;;;;;;;;;;;;;;;22.55;41.87;100926.28;4987785;28;19980;-89
2023/05/06 12:08:08;;;;;;;;;;;;;;;22.92;40.74;100926.13;5000991;28;20009;-90
2023/05/06 12:10:35;;;;;;;;;;;;;;;23.13;40.75;100927.50;5030537;28;19921;-89
2023/05/06 12:13:01;;;;;;;;;;;;;;;23.28;40.45;100931.66;5029911;28;20282;-89
2023/05/06 12:15:28;;;;;;;;;;;;;;;23.07;40.23;100933.09;5009656;28;19932;-90
2023/05/06 12:17:56;;;;;;;;;;;;;;;22.96;40.45;100938.25;5001265;28;19917;-89
2023/05/06 12:20:21;;;;;;;;;;;;;;;23.02;41.16;100932.97;5019551;28;19927;-87
2023/05/06 12:23:03;;;;;;;;;;;;;;;23.30;41.06;100927.59;4999060;28;20020;-87
2023/05/06 12:25:28;;;;;;;;;;;;;;;23.30;40.95;100922.13;5025717;28;19961;-84
2023/05/06 12:27:56;;;;;;;;;;;;;;;23.41;40.55;100925.91;5000868;28;19932;-86
2023/05/06 12:30:33;;;;;;;;;;;;;;;23.20;40.70;100932.81;4996562;28;20080;-87
2023/05/06 12:32:58;;;;;;;;;;;;;;;22.96;41.21;100923.72;5000950;28;19921;-89
2023/05/06 12:35:26;;;;;;;;;;;;;;;22.81;41.65;100921.44;5007370;28;20075;-88